Atascosa, Texas
Current Conditions -  °F | °C
As of 1:55 PM on Saturday 20 Dec 2014 (Local Time) from KCVB Reporting Station
Broken Clouds Broken Clouds  
Wind Chill: 58°   Ceiling: 2600
Heat Index: 58°   Visibility: 10mi
Dew Point: 43°   Wind: 3mph
Humidity: 57%   Direction: 60°ENE
Pressure: 30.17"   Gusts: NA
Location:  29.28°N, 98.74°W
Report Text: KCVB 201955Z AUTO 06003KT 10SM BKN026 15/06 A3017 RMK AO2 T01460062
Loading
Personal Weather Stations






























Interactive Weather Map New forecast layout! Learn more

10-Day Weather Forecast

Advertisements
Track Severe Weather on mobile